KN4MGS Weather Reports


Display with metric or nautical units.
time (UTC)temp
F
wind
direction
speed
MPH
gust
MPH
rain 1hr
in
rain 24hr
in
rain mn
in
humidity
%
barometer
mb
20210927181653 82 135 1.0 1.0 0.00 0.00 0.00 50 1022.5
20210927181153 82 149 2.0 2.0 0.00 0.00 0.00 50 1022.7
20210927180651 81 275 2.0 5.0 0.00 0.00 0.00 51 1022.5
20210927180151 82 224 2.0 3.0 0.00 0.00 0.00 53 1023.0
20210927175650 82 222 1.0 1.0 0.00 0.00 0.00 53 1022.8
20210927175150 82 186 1.0 1.0 0.00 0.00 0.00 51 1022.9
20210927174647 81 180 1.0 2.0 0.00 0.00 0.00 52 1023.1
20210927174148 82 202 3.0 3.0 0.00 0.00 0.00 52 1023.1
20210927173646 83 203 3.0 3.0 0.00 0.00 0.00 53 1023.1
20210927173145 81 173 1.0 1.0 0.00 0.00 0.00 54 1023.2
20210927172644 81 220 3.0 3.0 0.00 0.00 0.00 53 1023.2
20210927172142 83 192 3.0 5.0 0.00 0.00 0.00 52 1023.4
20210927171642 80 166 0.0 1.0 0.00 0.00 0.00 54 1023.5
20210927171140 80 273 1.0 1.0 0.00 0.00 0.00 53 1023.4
20210927170638 80 278 2.0 2.0 0.00 0.00 0.00 56 1023.6
20210927170138 79 171 3.0 5.0 0.00 0.00 0.00 54 1023.5
20210927165634 79 290 0.0 1.0 0.00 0.00 0.00 58 1023.9
20210927165134 79 253 2.0 3.0 0.00 0.00 0.00 58 1023.7
20210927164633 80 151 2.0 3.0 0.00 0.00 0.00 54 1023.8
20210927164130 81 282 2.0 2.0 0.00 0.00 0.00 55 1024.0
20210927163630 80 184 1.0 1.0 0.00 0.00 0.00 56 1023.8
20210927163127 78 157 3.0 3.0 0.00 0.00 0.00 56 1023.8
20210927162626 80 261 3.0 5.0 0.00 0.00 0.00 57 1024.0
20210927162125 80 282 5.0 6.0 0.00 0.00 0.00 59 1024.1
20210927161615 80 151 1.0 1.0 0.00 0.00 0.00 60 1024.1
20210927161114 78 148 1.0 1.0 0.00 0.00 0.00 61 1024.0
20210927160613 78 270 2.0 3.0 0.00 0.00 0.00 61 1024.0
20210927160113 78 179 1.0 1.0 0.00 0.00 0.00 63 1024.2
20210927155612 79 219 2.0 2.0 0.00 0.00 0.00 60 1024.2
20210927155110 78 167 1.0 1.0 0.00 0.00 0.00 62 1024.2
20210927154609 78 237 2.0 2.0 0.00 0.00 0.00 63 1024.2
20210927154109 77 250 1.0 1.0 0.00 0.00 0.00 62 1024.5
20210927153607 77 143 1.0 2.0 0.00 0.00 0.00 65 1024.4
20210927153106 76 175 1.0 2.0 0.00 0.00 0.00 65 1024.5
20210927152605 76 165 1.0 1.0 0.00 0.00 0.00 69 1024.5
20210927152103 74 89 0.0 0.0 0.00 0.00 0.00 67 1024.4
20210927151602 74 279 2.0 2.0 0.00 0.00 0.00 69 1024.6
20210927151100 74 358 0.0 0.0 0.00 0.00 0.00 67 1024.7
20210927150600 73 83 0.0 0.0 0.00 0.00 0.00 67 1024.5
20210927150058 75 264 2.0 2.0 0.00 0.00 0.00 68 1024.5
20210927145557 75 100 1.0 1.0 0.00 0.00 0.00 64 1024.7
20210927145055 75 173 2.0 2.0 0.00 0.00 0.00 65 1024.6
20210927144555 74 143 0.0 0.0 0.00 0.00 0.00 69 1024.8
20210927144052 73 118 0.0 0.0 0.00 0.00 0.00 67 1024.9
20210927143548 72 86 0.0 0.0 0.00 0.00 0.00 70 1024.7
20210927143048 71 96 1.0 1.0 0.00 0.00 0.00 70 1024.8
20210927142547 72 159 1.0 1.0 0.00 0.00 0.00 72 1024.9
20210927142042 70 166 0.0 0.0 0.00 0.00 0.00 74 1024.7
20210927141541 71 100 0.0 1.0 0.00 0.00 0.00 72 1024.8
20210927141039 70 93 0.0 0.0 0.00 0.00 0.00 76 1024.8
20210927140537 71 34 1.0 1.0 0.00 0.00 0.00 75 1025.0
20210927140036 69 173 0.0 0.0 0.00 0.00 0.00 74 1024.9
20210927135536 68 165 1.0 1.0 0.00 0.00 0.00 80 1025.0
20210927135034 66 111 0.0 0.0 0.00 0.00 0.00 82 1025.0
20210927134533 66 146 1.0 1.0 0.00 0.00 0.00 82 1025.0
20210927134032 66 110 0.0 1.0 0.00 0.00 0.00 82 1024.9
20210927133531 66 127 0.0 1.0 0.00 0.00 0.00 83 1024.8
20210927133027 65 123 0.0 1.0 0.00 0.00 0.00 83 1025.1
20210927132526 63 111 0.0 1.0 0.00 0.00 0.00 85 1025.2
20210927132023 61 89 0.0 0.0 0.00 0.00 0.00 88 1025.1
20210927131521 61 66 0.0 1.0 0.00 0.00 0.00 88 1025.0
20210927131018 60 82 1.0 1.0 0.00 0.00 0.00 90 1025.1
20210927130516 59 20 2.0 2.0 0.00 0.00 0.00 92 1024.9
20210927130014 58 92 0.0 1.0 0.00 0.00 0.00 94 1024.9
20210927125513 56 93 0.0 0.0 0.00 0.00 0.00 99 1025.0
20210927125011 55 93 0.0 0.0 0.00 0.00 0.00 99 1025.0
20210927124503 55 93 0.0 0.0 0.00 0.00 0.00 99 1024.9
20210927123956 54 93 0.0 1.0 0.00 0.00 0.00 99 1024.9
20210927123456 55 93 0.0 0.0 0.00 0.00 0.00 99 1024.9
20210927122954 53 93 0.0 0.0 0.00 0.00 0.00 99 1024.7
20210927122452 53 93 0.0 0.0 0.00 0.00 0.00 99 1024.8
20210927121951 51 93 0.0 0.0 0.00 0.00 0.00 99 1024.6
20210927121450 50 93 0.0 0.0 0.00 0.00 0.00 99 1024.5
20210927120950 50 93 0.0 0.0 0.00 0.00 0.00 99 1024.7
20210927120447 50 93 0.0 0.0 0.00 0.00 0.00 99 1024.6
20210927115941 49 93 0.0 0.0 0.00 0.00 0.00 99 1024.4
20210927115441 49 93 0.0 0.0 0.00 0.00 0.00 99 1024.4
20210927114940 49 93 0.0 0.0 0.00 0.00 0.00 99 1024.4
20210927114436 49 93 0.0 0.0 0.00 0.00 0.00 99 1024.4
20210927113936 49 93 0.0 0.0 0.00 0.00 0.00 99 1024.3
20210927113435 49 93 0.0 0.0 0.00 0.00 0.00 99 1024.3
20210927112933 48 93 0.0 0.0 0.00 0.00 0.00 99 1024.4
20210927112432 48 93 0.0 0.0 0.00 0.00 0.00 99 1024.3
20210927111929 48 93 0.0 0.0 0.00 0.00 0.00 99 1024.4
20210927111427 49 93 0.0 0.0 0.00 0.00 0.00 99 1024.3
20210927110925 49 93 0.0 0.0 0.00 0.00 0.00 99 1024.3
20210927110425 49 93 0.0 0.0 0.00 0.00 0.00 99 1024.1
20210927105924 49 93 0.0 0.0 0.00 0.00 0.00 99 1024.1
20210927105422 49 93 0.0 0.0 0.00 0.00 0.00 99 1024.3
20210927104920 49 93 0.0 0.0 0.00 0.00 0.00 99 1024.2
20210927104419 49 93 0.0 0.0 0.00 0.00 0.00 99 1024.1
20210927103915 49 93 0.0 0.0 0.00 0.00 0.00 99 1024.2
20210927103414 49 93 0.0 0.0 0.00 0.00 0.00 99 1024.0
20210927102914 49 93 0.0 0.0 0.00 0.00 0.00 99 1024.2
20210927102408 49 93 0.0 0.0 0.00 0.00 0.00 99 1024.0
20210927101907 49 93 0.0 0.0 0.00 0.00 0.00 99 1023.9
20210927101406 49 93 0.0 0.0 0.00 0.00 0.00 99 1023.9
20210927100903 49 93 0.0 0.0 0.00 0.00 0.00 99 1023.8
20210927100402 49 93 0.0 0.0 0.00 0.00 0.00 99 1023.9
20210927095902 49 93 0.0 0.0 0.00 0.00 0.00 99 1024.1
20210927095400 50 93 0.0 0.0 0.00 0.00 0.00 99 1024.1
20210927094858 50 93 0.0 0.0 0.00 0.00 0.00 99 1023.9
20210927094357 50 93 0.0 0.0 0.00 0.00 0.00 99 1023.8
20210927093853 50 93 0.0 0.0 0.00 0.00 0.00 99 1023.7
20210927093352 50 93 0.0 0.0 0.00 0.00 0.00 99 1023.6
20210927092850 50 93 0.0 0.0 0.00 0.00 0.00 99 1023.6
20210927092349 50 93 0.0 0.0 0.00 0.00 0.00 99 1023.7
20210927091849 50 93 0.0 0.0 0.00 0.00 0.00 99 1023.9
20210927091344 50 93 0.0 0.0 0.00 0.00 0.00 99 1023.7
20210927090843 50 93 0.0 0.0 0.00 0.00 0.00 99 1023.6
20210927090342 50 93 0.0 0.0 0.00 0.00 0.00 99 1023.6
20210927085841 50 93 0.0 0.0 0.00 0.00 0.00 99 1023.4
20210927085339 50 93 0.0 0.0 0.00 0.00 0.00 99 1023.7
20210927084837 50 93 0.0 0.0 0.00 0.00 0.00 99 1023.6
20210927084335 50 93 0.0 0.0 0.00 0.00 0.00 99 1023.6
20210927083834 50 93 0.0 0.0 0.00 0.00 0.00 99 1023.7
20210927083332 50 93 0.0 0.0 0.00 0.00 0.00 99 1023.7
20210927082831 50 93 0.0 0.0 0.00 0.00 0.00 99 1023.7
20210927082329 50 93 0.0 0.0 0.00 0.00 0.00 99 1023.9
20210927081829 50 93 0.0 0.0 0.00 0.00 0.00 99 1023.6
20210927081327 51 93 0.0 0.0 0.00 0.00 0.00 99 1023.7
20210927080825 51 93 0.0 0.0 0.00 0.00 0.00 99 1023.6
20210927080323 51 93 0.0 0.0 0.00 0.00 0.00 99 1023.6
20210927075823 51 93 0.0 0.0 0.00 0.00 0.00 99 1023.7
20210927075320 51 93 0.0 0.0 0.00 0.00 0.00 99 1023.5
20210927074818 51 93 0.0 0.0 0.00 0.00 0.00 99 1023.6
20210927074318 51 93 0.0 0.0 0.00 0.00 0.00 99 1023.6
20210927073817 51 93 0.0 0.0 0.00 0.00 0.00 99 1023.6
20210927073316 51 93 0.0 0.0 0.00 0.00 0.00 99 1023.5
20210927072815 51 93 0.0 0.0 0.00 0.00 0.00 99 1023.5
20210927072313 51 93 0.0 0.0 0.00 0.00 0.00 99 1023.7
20210927071813 51 93 0.0 0.0 0.00 0.00 0.00 99 1023.6
20210927071313 51 93 0.0 0.0 0.00 0.00 0.00 99 1023.7
20210927070811 51 93 0.0 0.0 0.00 0.00 0.00 99 1023.6
20210927070310 52 93 0.0 0.0 0.00 0.00 0.00 99 1023.7
20210927065809 51 93 0.0 0.0 0.00 0.00 0.00 99 1023.7
20210927065309 52 93 0.0 0.0 0.00 0.00 0.00 99 1023.8
20210927064808 52 93 0.0 0.0 0.00 0.00 0.00 99 1023.6
20210927064307 52 93 0.0 0.0 0.00 0.00 0.00 99 1023.5
20210927063808 52 93 0.0 0.0 0.00 0.00 0.00 99 1023.7
20210927063306 52 93 0.0 0.0 0.00 0.00 0.00 99 1023.7
20210927062804 52 93 0.0 0.0 0.00 0.00 0.00 99 1023.6
20210927062301 52 93 0.0 0.0 0.00 0.00 0.00 99 1023.8
20210927061801 52 93 0.0 0.0 0.00 0.00 0.00 99 1023.9
20210927061300 52 93 0.0 0.0 0.00 0.00 0.00 99 1023.7
20210927060757 52 92 0.0 0.0 0.00 0.00 0.00 99 1024.0
20210927060257 52 92 0.0 0.0 0.00 0.00 0.00 99 1023.5
20210927055755 52 92 0.0 0.0 0.00 0.00 0.00 99 1023.6
20210927055253 52 92 0.0 0.0 0.00 0.00 0.00 99 1023.7
20210927054752 52 92 0.0 0.0 0.00 0.00 0.00 99 1023.7
20210927054251 52 92 0.0 0.0 0.00 0.00 0.00 99 1023.7
20210927053750 52 92 0.0 0.0 0.00 0.00 0.00 99 1023.6
20210927053250 53 92 0.0 0.0 0.00 0.00 0.00 99 1023.8
20210927052750 53 92 0.0 0.0 0.00 0.00 0.00 99 1023.8
20210927052248 53 92 0.0 0.0 0.00 0.00 0.00 99 1023.8
20210927051746 53 92 0.0 0.0 0.00 0.00 0.00 99 1024.0
20210927051245 53 92 0.0 0.0 0.00 0.00 0.00 99 1023.7
20210927050743 53 92 0.0 0.0 0.00 0.00 0.00 99 1023.8
20210927050242 53 92 0.0 0.0 0.00 0.00 0.00 99 1023.8
20210927045739 53 92 0.0 0.0 0.00 0.00 0.00 99 1024.1
20210927045238 53 92 0.0 0.0 0.00 0.00 0.00 99 1023.9
20210927044736 53 92 0.0 0.0 0.00 0.00 0.00 99 1023.7
20210927044236 53 92 0.0 0.0 0.00 0.00 0.00 99 1023.6
20210927043735 53 92 0.0 0.0 0.00 0.00 0.00 99 1023.9
20210927043234 54 92 0.0 0.0 0.00 0.00 0.00 99 1023.9
20210927042732 54 92 0.0 0.0 0.00 0.00 0.00 99 1024.0
20210927042231 54 92 0.0 0.0 0.00 0.00 0.00 99 1023.8
20210927041731 54 92 0.0 0.0 0.00 0.00 0.00 99 1023.7
20210927041230 54 92 0.0 0.0 0.00 0.00 0.00 99 1024.1
20210927040727 54 92 0.0 0.0 0.00 0.00 0.00 99 1023.9
20210927040227 54 92 0.0 0.0 0.00 0.00 0.00 99 1023.9
20210927035726 54 92 0.0 0.0 0.00 0.00 0.00 99 1023.7
20210927035225 54 92 0.0 0.0 0.00 0.00 0.00 99 1023.8
20210927034724 54 92 0.0 0.0 0.00 0.00 0.00 99 1023.9
20210927034224 55 92 0.0 0.0 0.00 0.00 0.00 99 1023.7
20210927033723 55 92 0.0 0.0 0.00 0.00 0.00 99 1023.8
20210927033221 55 92 0.0 0.0 0.00 0.00 0.00 99 1023.6
20210927032714 55 92 0.0 0.0 0.00 0.00 0.00 99 1023.6
20210927032213 55 92 0.0 0.0 0.00 0.00 0.00 99 1023.6
20210927031712 55 92 0.0 0.0 0.00 0.00 0.00 99 1023.8
20210927031212 55 92 0.0 0.0 0.00 0.00 0.00 99 1023.6
20210927030709 55 92 0.0 0.0 0.00 0.00 0.00 99 1023.8
20210927030209 56 92 0.0 0.0 0.00 0.00 0.00 99 1023.7
20210927025707 55 92 0.0 0.0 0.00 0.00 0.00 99 1023.7
20210927025206 56 92 0.0 0.0 0.00 0.00 0.00 99 1023.4
20210927024705 56 92 0.0 0.0 0.00 0.00 0.00 99 1023.6
20210927024203 56 181 0.0 0.0 0.00 0.00 0.00 99 1023.7
20210927023703 56 181 0.0 0.0 0.00 0.00 0.00 99 1023.6
20210927023201 56 181 0.0 0.0 0.00 0.00 0.00 99 1023.6
20210927022656 56 182 0.0 1.0 0.00 0.00 0.00 99 1023.5
20210927022155 56 170 1.0 2.0 0.00 0.00 0.00 99 1023.5
20210927021655 56 170 0.0 0.0 0.00 0.00 0.00 99 1023.3
20210927021153 56 170 0.0 0.0 0.00 0.00 0.00 99 1023.2
20210927020652 57 170 0.0 0.0 0.00 0.00 0.00 99 1023.5
20210927020150 57 170 0.0 0.0 0.00 0.00 0.00 99 1023.5
20210927015649 57 170 0.0 0.0 0.00 0.00 0.00 99 1023.3
20210927015148 57 170 0.0 0.0 0.00 0.00 0.00 99 1023.3
20210927014642 57 170 0.0 0.0 0.00 0.00 0.00 99 1023.3
20210927014142 57 170 0.0 0.0 0.00 0.00 0.00 99 1023.2
20210927013634 58 170 0.0 0.0 0.00 0.00 0.00 99 1023.1
20210927013134 58 170 0.0 0.0 0.00 0.00 0.00 99 1023.2
20210927012627 58 170 0.0 0.0 0.00 0.00 0.00 99 1023.3
20210927012126 58 170 0.0 0.0 0.00 0.00 0.00 99 1023.2
20210927011624 58 170 0.0 0.0 0.00 0.00 0.00 99 1023.3
20210927011123 59 170 0.0 0.0 0.00 0.00 0.00 99 1023.0
20210927010621 59 170 0.0 0.0 0.00 0.00 0.00 99 1023.2
20210927010118 59 170 0.0 0.0 0.00 0.00 0.00 99 1023.0
20210927005618 59 170 0.0 0.0 0.00 0.00 0.00 98 1023.1
20210927005115 59 170 0.0 0.0 0.00 0.00 0.00 98 1023.0
20210927004614 60 170 0.0 0.0 0.00 0.00 0.00 97 1022.8
20210927004112 60 170 0.0 0.0 0.00 0.00 0.00 97 1022.8
20210927003611 60 170 0.0 0.0 0.00 0.00 0.00 96 1022.8
20210927003111 60 170 0.0 0.0 0.00 0.00 0.00 95 1022.6
20210927002610 61 170 0.0 0.0 0.00 0.00 0.00 96 1022.6
20210927002108 61 170 0.0 0.0 0.00 0.00 0.00 95 1022.8
20210927001607 61 170 0.0 0.0 0.00 0.00 0.00 94 1022.6
20210927001106 61 170 0.0 0.0 0.00 0.00 0.00 95 1022.6
20210927000606 62 170 0.0 0.0 0.00 0.00 0.00 94 1022.5
20210927000105 62 170 0.0 0.0 0.00 0.00 0.00 93 1022.3
20210926235604 62 170 0.0 0.0 0.00 0.00 0.00 93 1022.3
20210926235102 63 170 0.0 0.0 0.00 0.00 0.00 92 1022.3
20210926234602 64 170 0.0 0.0 0.00 0.00 0.00 91 1022.3
20210926234101 64 170 0.0 0.0 0.00 0.00 0.00 87 1022.5
20210926233559 65 170 0.0 0.0 0.00 0.00 0.00 88 1022.3
20210926233057 65 170 0.0 1.0 0.00 0.00 0.00 88 1022.0
20210926232556 66 171 0.0 0.0 0.00 0.00 0.00 86 1021.9
20210926232056 66 171 0.0 0.0 0.00 0.00 0.00 84 1022.1
20210926231554 66 170 0.0 1.0 0.00 0.00 0.00 85 1022.0
20210926231053 67 171 0.0 0.0 0.00 0.00 0.00 83 1022.0
20210926230551 68 171 0.0 0.0 0.00 0.00 0.00 82 1022.0
20210926230050 68 171 0.0 0.0 0.00 0.00 0.00 81 1021.9
20210926225548 69 171 0.0 1.0 0.00 0.00 0.00 78 1021.9
20210926225047 71 171 0.0 0.0 0.00 0.00 0.00 76 1021.8
20210926224545 72 171 0.0 0.0 0.00 0.00 0.00 73 1021.7
20210926224045 72 170 0.0 0.0 0.00 0.00 0.00 73 1021.7
20210926223544 74 171 0.0 1.0 0.00 0.00 0.00 70 1021.9
20210926223043 77 172 0.0 0.0 0.00 0.00 0.00 64 1021.7
20210926222542 79 172 0.0 0.0 0.00 0.00 0.00 61 1021.9
20210926222037 78 172 1.0 1.0 0.00 0.00 0.00 62 1021.8
20210926221536 78 172 0.0 1.0 0.00 0.00 0.00 59 1021.9
20210926221036 78 172 1.0 1.0 0.00 0.00 0.00 61 1021.8
20210926220535 81 143 1.0 1.0 0.00 0.00 0.00 51 1021.9
20210926220034 81 201 0.0 0.0 0.00 0.00 0.00 45 1021.8
20210926215534 81 227 1.0 1.0 0.00 0.00 0.00 43 1022.0
20210926215027 82 177 0.0 0.0 0.00 0.00 0.00 45 1021.8
20210926214525 81 314 1.0 1.0 0.00 0.00 0.00 44 1021.7
20210926214025 80 195 0.0 0.0 0.00 0.00 0.00 45 1021.6
20210926213524 81 167 0.0 1.0 0.00 0.00 0.00 43 1021.7
20210926213022 81 22 0.0 0.0 0.00 0.00 0.00 43 1021.7
20210926212519 80 227 1.0 1.0 0.00 0.00 0.00 44 1021.8
20210926212019 80 161 0.0 0.0 0.00 0.00 0.00 42 1021.7
20210926211518 80 277 0.0 1.0 0.00 0.00 0.00 42 1021.8
20210926211018 82 290 2.0 2.0 0.00 0.00 0.00 42 1021.8
20210926210517 80 357 0.0 0.0 0.00 0.00 0.00 44 1021.9
20210926210012 81 318 1.0 2.0 0.00 0.00 0.00 43 1021.8
20210926205511 81 196 3.0 3.0 0.00 0.00 0.00 42 1021.8
20210926205010 80 188 0.0 0.0 0.00 0.00 0.00 44 1021.8
20210926204508 82 308 2.0 2.0 0.00 0.00 0.00 40 1021.8
20210926204007 81 165 0.0 0.0 0.00 0.00 0.00 42 1021.8
20210926203506 79 207 2.0 2.0 0.00 0.00 0.00 42 1021.6
20210926203001 80 200 2.0 3.0 0.00 0.00 0.00 42 1022.0
20210926202459 80 251 3.0 3.0 0.00 0.00 0.00 41 1021.8
20210926201955 81 304 1.0 2.0 0.00 0.00 0.00 40 1021.9
20210926201453 80 276 2.0 3.0 0.00 0.00 0.00 41 1021.8
20210926200952 80 182 2.0 2.0 0.00 0.00 0.00 44 1021.7
20210926200452 81 278 4.0 6.0 0.00 0.00 0.00 40 1022.0
20210926195951 81 238 3.0 3.0 0.00 0.00 0.00 41 1021.9
20210926195450 80 183 2.0 2.0 0.00 0.00 0.00 44 1022.2
20210926194946 79 289 4.0 5.0 0.00 0.00 0.00 43 1022.2
20210926194445 81 301 5.0 6.0 0.00 0.00 0.00 42 1021.9
20210926193945 82 186 1.0 1.0 0.00 0.00 0.00 43 1022.2
20210926193442 80 292 2.0 2.0 0.00 0.00 0.00 42 1022.2
20210926192941 80 289 3.0 3.0 0.00 0.00 0.00 43 1022.3
20210926192440 80 193 1.0 1.0 0.00 0.00 0.00 46 1022.6
20210926191939 80 312 1.0 2.0 0.00 0.00 0.00 44 1022.3
20210926191438 80 357 2.0 3.0 0.00 0.00 0.00 43 1022.5
20210926190936 80 296 5.0 7.0 0.00 0.00 0.00 44 1022.8
20210926190435 80 193 4.0 6.0 0.00 0.00 0.00 43 1022.3
20210926185932 79 191 0.0 1.0 0.00 0.00 0.00 44 1022.5
20210926185430 80 158 2.0 2.0 0.00 0.00 0.00 45 1022.7
20210926184929 79 212 3.0 3.0 0.00 0.00 0.00 49 1022.7
20210926184429 79 303 3.0 5.0 0.00 0.00 0.00 45 1022.7
20210926183927 80 176 3.0 5.0 0.00 0.00 0.00 44 1022.8
20210926183425 78 184 4.0 6.0 0.00 0.00 0.00 44 1022.7
20210926182924 79 186 4.0 5.0 0.00 0.00 0.00 44 1023.1
20210926182423 79 214 3.0 3.0 0.00 0.00 0.00 46 1022.9